sensor_id;sensor_type;location;lat;lon;timestamp;P1;durP1;ratioP1;P2;durP2;ratioP2
66946;SDS011;53853;51.982;5.928;2023-05-24T00:01:30;11.77;;;3.47;;
66946;SDS011;53853;51.982;5.928;2023-05-24T00:04:02;11.20;;;3.42;;
66946;SDS011;53853;51.982;5.928;2023-05-24T00:06:32;9.32;;;3.08;;
66946;SDS011;53853;51.982;5.928;2023-05-24T00:09:02;14.40;;;3.78;;
66946;SDS011;53853;51.982;5.928;2023-05-24T00:11:32;10.18;;;2.90;;
66946;SDS011;53853;51.982;5.928;2023-05-24T00:14:02;10.98;;;3.13;;
66946;SDS011;53853;51.982;5.928;2023-05-24T00:16:34;8.07;;;3.03;;
66946;SDS011;53853;51.982;5.928;2023-05-24T00:19:04;10.60;;;3.13;;
66946;SDS011;53853;51.982;5.928;2023-05-24T00:21:35;10.30;;;3.58;;
66946;SDS011;53853;51.982;5.928;2023-05-24T00:24:05;11.98;;;4.18;;
66946;SDS011;53853;51.982;5.928;2023-05-24T00:26:35;10.00;;;3.25;;
66946;SDS011;53853;51.982;5.928;2023-05-24T00:29:06;10.63;;;2.90;;
66946;SDS011;53853;51.982;5.928;2023-05-24T00:31:40;7.18;;;2.67;;
66946;SDS011;53853;51.982;5.928;2023-05-24T00:34:09;11.25;;;3.22;;
66946;SDS011;53853;51.982;5.928;2023-05-24T00:36:39;15.75;;;3.80;;
66946;SDS011;53853;51.982;5.928;2023-05-24T00:39:09;10.88;;;2.95;;
66946;SDS011;53853;51.982;5.928;2023-05-24T00:41:41;10.32;;;3.63;;
66946;SDS011;53853;51.982;5.928;2023-05-24T00:44:11;11.70;;;4.43;;
66946;SDS011;53853;51.982;5.928;2023-05-24T00:46:43;10.10;;;3.22;;
66946;SDS011;53853;51.982;5.928;2023-05-24T00:49:14;13.38;;;4.53;;
66946;SDS011;53853;51.982;5.928;2023-05-24T00:51:44;9.00;;;3.10;;
66946;SDS011;53853;51.982;5.928;2023-05-24T00:54:15;9.38;;;3.30;;
66946;SDS011;53853;51.982;5.928;2023-05-24T00:56:45;12.63;;;3.35;;
66946;SDS011;53853;51.982;5.928;2023-05-24T00:59:16;12.02;;;3.42;;
66946;SDS011;53853;51.982;5.928;2023-05-24T01:01:48;10.43;;;3.50;;
66946;SDS011;53853;51.982;5.928;2023-05-24T01:04:20;16.42;;;3.83;;
66946;SDS011;53853;51.982;5.928;2023-05-24T01:06:54;13.15;;;3.33;;
66946;SDS011;53853;51.982;5.928;2023-05-24T01:09:39;8.85;;;2.80;;
66946;SDS011;53853;51.982;5.928;2023-05-24T01:12:25;12.27;;;3.22;;
66946;SDS011;53853;51.982;5.928;2023-05-24T01:15:06;10.63;;;3.25;;
66946;SDS011;53853;51.982;5.928;2023-05-24T01:17:50;14.65;;;4.03;;
66946;SDS011;53853;51.982;5.928;2023-05-24T01:20:31;10.90;;;3.30;;
66946;SDS011;53853;51.982;5.928;2023-05-24T01:23:06;11.38;;;3.55;;
66946;SDS011;53853;51.982;5.928;2023-05-24T01:26:01;9.40;;;3.38;;
66946;SDS011;53853;51.982;5.928;2023-05-24T01:28:49;8.32;;;2.88;;
66946;SDS011;53853;51.982;5.928;2023-05-24T01:31:19;9.02;;;2.85;;
66946;SDS011;53853;51.982;5.928;2023-05-24T01:33:50;10.15;;;2.78;;
66946;SDS011;53853;51.982;5.928;2023-05-24T01:36:20;13.43;;;3.20;;
66946;SDS011;53853;51.982;5.928;2023-05-24T01:38:50;7.78;;;3.60;;
66946;SDS011;53853;51.982;5.928;2023-05-24T01:41:22;9.13;;;3.08;;
66946;SDS011;53853;51.982;5.928;2023-05-24T01:44:06;10.05;;;3.70;;
66946;SDS011;53853;51.982;5.928;2023-05-24T01:46:46;15.68;;;4.18;;
66946;SDS011;53853;51.982;5.928;2023-05-24T01:49:25;13.30;;;3.20;;
66946;SDS011;53853;51.982;5.928;2023-05-24T01:52:00;13.45;;;4.05;;
66946;SDS011;53853;51.982;5.928;2023-05-24T01:54:32;11.52;;;3.08;;
66946;SDS011;53853;51.982;5.928;2023-05-24T01:59:39;16.17;;;3.78;;
66946;SDS011;53853;51.982;5.928;2023-05-24T02:02:12;10.20;;;3.15;;
66946;SDS011;53853;51.982;5.928;2023-05-24T02:04:43;9.32;;;2.97;;
66946;SDS011;53853;51.982;5.928;2023-05-24T02:07:13;11.93;;;3.58;;
66946;SDS011;53853;51.982;5.928;2023-05-24T02:09:44;10.23;;;2.85;;
66946;SDS011;53853;51.982;5.928;2023-05-24T02:12:13;11.52;;;3.35;;
66946;SDS011;53853;51.982;5.928;2023-05-24T02:14:46;11.82;;;3.92;;
66946;SDS011;53853;51.982;5.928;2023-05-24T02:17:16;9.20;;;3.08;;
66946;SDS011;53853;51.982;5.928;2023-05-24T02:19:47;13.10;;;4.38;;
66946;SDS011;53853;51.982;5.928;2023-05-24T02:22:17;9.45;;;3.53;;
66946;SDS011;53853;51.982;5.928;2023-05-24T02:24:47;10.63;;;3.00;;
66946;SDS011;53853;51.982;5.928;2023-05-24T02:27:18;9.13;;;3.13;;
66946;SDS011;53853;51.982;5.928;2023-05-24T02:29:50;11.05;;;3.03;;
66946;SDS011;53853;51.982;5.928;2023-05-24T02:32:20;18.80;;;5.30;;
66946;SDS011;53853;51.982;5.928;2023-05-24T02:34:50;8.00;;;3.38;;
66946;SDS011;53853;51.982;5.928;2023-05-24T02:37:20;10.20;;;3.47;;
66946;SDS011;53853;51.982;5.928;2023-05-24T02:39:50;10.57;;;3.20;;
66946;SDS011;53853;51.982;5.928;2023-05-24T02:42:20;10.85;;;2.95;;
66946;SDS011;53853;51.982;5.928;2023-05-24T02:44:52;8.00;;;2.92;;
66946;SDS011;53853;51.982;5.928;2023-05-24T02:50:02;11.00;;;4.47;;
66946;SDS011;53853;51.982;5.928;2023-05-24T02:52:33;12.88;;;3.72;;
66946;SDS011;53853;51.982;5.928;2023-05-24T02:55:03;12.10;;;3.67;;
66946;SDS011;53853;51.982;5.928;2023-05-24T02:57:34;8.77;;;2.85;;
66946;SDS011;53853;51.982;5.928;2023-05-24T03:00:07;9.95;;;3.70;;
66946;SDS011;53853;51.982;5.928;2023-05-24T03:02:40;13.07;;;3.30;;
66946;SDS011;53853;51.982;5.928;2023-05-24T03:05:12;11.73;;;3.75;;
66946;SDS011;53853;51.982;5.928;2023-05-24T03:07:42;10.05;;;3.97;;
66946;SDS011;53853;51.982;5.928;2023-05-24T03:10:12;7.63;;;3.28;;
66946;SDS011;53853;51.982;5.928;2023-05-24T03:12:42;9.73;;;3.13;;
66946;SDS011;53853;51.982;5.928;2023-05-24T03:15:14;14.68;;;4.43;;
66946;SDS011;53853;51.982;5.928;2023-05-24T03:17:45;11.70;;;3.28;;
66946;SDS011;53853;51.982;5.928;2023-05-24T03:20:15;9.43;;;3.70;;
66946;SDS011;53853;51.982;5.928;2023-05-24T03:22:45;12.30;;;3.47;;
66946;SDS011;53853;51.982;5.928;2023-05-24T03:25:15;9.38;;;3.20;;
66946;SDS011;53853;51.982;5.928;2023-05-24T03:27:46;8.82;;;2.88;;
66946;SDS011;53853;51.982;5.928;2023-05-24T03:30:19;8.82;;;3.85;;
66946;SDS011;53853;51.982;5.928;2023-05-24T03:32:54;9.32;;;3.15;;
66946;SDS011;53853;51.982;5.928;2023-05-24T03:35:24;10.00;;;3.65;;
66946;SDS011;53853;51.982;5.928;2023-05-24T03:37:55;10.35;;;3.53;;
66946;SDS011;53853;51.982;5.928;2023-05-24T03:40:27;8.48;;;3.17;;
66946;SDS011;53853;51.982;5.928;2023-05-24T03:43:03;11.45;;;3.58;;
66946;SDS011;53853;51.982;5.928;2023-05-24T03:45:58;11.82;;;4.00;;
66946;SDS011;53853;51.982;5.928;2023-05-24T03:48:28;8.75;;;3.22;;
66946;SDS011;53853;51.982;5.928;2023-05-24T03:50:58;8.55;;;3.22;;
66946;SDS011;53853;51.982;5.928;2023-05-24T03:53:28;9.02;;;3.05;;
66946;SDS011;53853;51.982;5.928;2023-05-24T03:55:59;11.63;;;4.53;;
66946;SDS011;53853;51.982;5.928;2023-05-24T03:58:31;10.43;;;3.72;;
66946;SDS011;53853;51.982;5.928;2023-05-24T04:01:04;7.45;;;3.30;;
66946;SDS011;53853;51.982;5.928;2023-05-24T04:03:34;11.48;;;4.63;;
66946;SDS011;53853;51.982;5.928;2023-05-24T04:06:05;12.05;;;3.92;;
66946;SDS011;53853;51.982;5.928;2023-05-24T04:08:35;11.38;;;3.72;;
66946;SDS011;53853;51.982;5.928;2023-05-24T04:11:05;9.77;;;3.60;;
66946;SDS011;53853;51.982;5.928;2023-05-24T04:13:36;8.30;;;3.00;;
66946;SDS011;53853;51.982;5.928;2023-05-24T04:16:09;12.82;;;5.18;;
66946;SDS011;53853;51.982;5.928;2023-05-24T04:18:38;11.10;;;3.65;;
66946;SDS011;53853;51.982;5.928;2023-05-24T04:21:09;12.88;;;3.90;;
66946;SDS011;53853;51.982;5.928;2023-05-24T04:23:39;13.75;;;4.38;;
66946;SDS011;53853;51.982;5.928;2023-05-24T04:26:09;6.57;;;3.30;;
66946;SDS011;53853;51.982;5.928;2023-05-24T04:28:40;11.45;;;4.05;;
66946;SDS011;53853;51.982;5.928;2023-05-24T04:31:13;10.55;;;4.53;;
66946;SDS011;53853;51.982;5.928;2023-05-24T04:33:43;14.70;;;4.72;;
66946;SDS011;53853;51.982;5.928;2023-05-24T04:36:14;11.77;;;4.60;;
66946;SDS011;53853;51.982;5.928;2023-05-24T04:38:45;15.23;;;5.22;;
66946;SDS011;53853;51.982;5.928;2023-05-24T04:41:15;10.77;;;3.85;;
66946;SDS011;53853;51.982;5.928;2023-05-24T04:43:47;21.90;;;5.70;;
66946;SDS011;53853;51.982;5.928;2023-05-24T04:46:19;17.20;;;6.13;;
66946;SDS011;53853;51.982;5.928;2023-05-24T04:48:49;16.63;;;5.72;;
66946;SDS011;53853;51.982;5.928;2023-05-24T04:51:21;12.93;;;4.20;;
66946;SDS011;53853;51.982;5.928;2023-05-24T04:53:51;12.40;;;4.43;;
66946;SDS011;53853;51.982;5.928;2023-05-24T04:56:21;15.48;;;4.90;;
66946;SDS011;53853;51.982;5.928;2023-05-24T04:58:51;15.50;;;4.55;;
66946;SDS011;53853;51.982;5.928;2023-05-24T05:01:24;15.60;;;5.75;;
66946;SDS011;53853;51.982;5.928;2023-05-24T05:03:54;13.35;;;5.22;;
66946;SDS011;53853;51.982;5.928;2023-05-24T05:06:23;21.83;;;5.80;;
66946;SDS011;53853;51.982;5.928;2023-05-24T05:08:53;21.88;;;5.82;;
66946;SDS011;53853;51.982;5.928;2023-05-24T05:11:23;15.45;;;5.60;;
66946;SDS011;53853;51.982;5.928;2023-05-24T05:13:53;15.45;;;5.65;;
66946;SDS011;53853;51.982;5.928;2023-05-24T05:16:25;14.80;;;5.05;;
66946;SDS011;53853;51.982;5.928;2023-05-24T05:18:56;19.40;;;5.40;;
66946;SDS011;53853;51.982;5.928;2023-05-24T05:21:26;19.10;;;5.80;;
66946;SDS011;53853;51.982;5.928;2023-05-24T05:23:57;12.40;;;4.93;;
66946;SDS011;53853;51.982;5.928;2023-05-24T05:26:28;14.15;;;5.03;;
66946;SDS011;53853;51.982;5.928;2023-05-24T05:28:59;15.82;;;6.25;;
66946;SDS011;53853;51.982;5.928;2023-05-24T05:31:31;14.27;;;5.18;;
66946;SDS011;53853;51.982;5.928;2023-05-24T05:34:01;15.40;;;5.78;;
66946;SDS011;53853;51.982;5.928;2023-05-24T05:36:34;18.98;;;6.88;;
66946;SDS011;53853;51.982;5.928;2023-05-24T05:39:07;16.23;;;5.55;;
66946;SDS011;53853;51.982;5.928;2023-05-24T05:41:37;17.85;;;5.47;;
66946;SDS011;53853;51.982;5.928;2023-05-24T05:44:08;22.30;;;5.53;;
66946;SDS011;53853;51.982;5.928;2023-05-24T05:46:41;16.02;;;5.55;;
66946;SDS011;53853;51.982;5.928;2023-05-24T05:49:11;17.52;;;5.40;;
66946;SDS011;53853;51.982;5.928;2023-05-24T05:51:43;17.67;;;5.68;;
66946;SDS011;53853;51.982;5.928;2023-05-24T05:54:13;17.15;;;4.90;;
66946;SDS011;53853;51.982;5.928;2023-05-24T05:56:43;13.27;;;5.28;;
66946;SDS011;53853;51.982;5.928;2023-05-24T05:59:13;17.20;;;5.05;;
66946;SDS011;53853;51.982;5.928;2023-05-24T06:01:46;15.15;;;5.55;;
66946;SDS011;53853;51.982;5.928;2023-05-24T06:04:17;12.65;;;4.15;;
66946;SDS011;53853;51.982;5.928;2023-05-24T06:06:47;17.02;;;5.28;;
66946;SDS011;53853;51.982;5.928;2023-05-24T06:09:16;17.80;;;4.80;;
66946;SDS011;53853;51.982;5.928;2023-05-24T06:11:46;10.20;;;4.50;;
66946;SDS011;53853;51.982;5.928;2023-05-24T06:14:16;20.75;;;5.93;;
66946;SDS011;53853;51.982;5.928;2023-05-24T06:16:49;16.30;;;5.43;;
66946;SDS011;53853;51.982;5.928;2023-05-24T06:19:19;21.02;;;5.45;;
66946;SDS011;53853;51.982;5.928;2023-05-24T06:21:49;15.80;;;5.13;;
66946;SDS011;53853;51.982;5.928;2023-05-24T06:24:19;19.08;;;5.28;;
66946;SDS011;53853;51.982;5.928;2023-05-24T06:26:50;17.17;;;5.13;;
66946;SDS011;53853;51.982;5.928;2023-05-24T06:29:20;12.98;;;4.72;;
66946;SDS011;53853;51.982;5.928;2023-05-24T06:31:53;24.15;;;7.28;;
66946;SDS011;53853;51.982;5.928;2023-05-24T06:34:23;18.50;;;5.65;;
66946;SDS011;53853;51.982;5.928;2023-05-24T06:36:54;11.10;;;4.20;;
66946;SDS011;53853;51.982;5.928;2023-05-24T06:39:24;17.58;;;5.85;;
66946;SDS011;53853;51.982;5.928;2023-05-24T06:41:54;16.63;;;5.22;;
66946;SDS011;53853;51.982;5.928;2023-05-24T06:44:24;14.98;;;5.72;;
66946;SDS011;53853;51.982;5.928;2023-05-24T06:47:02;15.13;;;6.47;;
66946;SDS011;53853;51.982;5.928;2023-05-24T06:49:34;12.85;;;4.75;;
66946;SDS011;53853;51.982;5.928;2023-05-24T06:52:03;11.70;;;4.78;;
66946;SDS011;53853;51.982;5.928;2023-05-24T06:54:34;19.45;;;5.53;;
66946;SDS011;53853;51.982;5.928;2023-05-24T06:57:04;10.32;;;3.97;;
66946;SDS011;53853;51.982;5.928;2023-05-24T06:59:34;19.77;;;5.90;;
66946;SDS011;53853;51.982;5.928;2023-05-24T07:02:06;14.48;;;5.10;;
66946;SDS011;53853;51.982;5.928;2023-05-24T07:04:36;15.48;;;5.82;;
66946;SDS011;53853;51.982;5.928;2023-05-24T07:07:07;14.10;;;4.95;;
66946;SDS011;53853;51.982;5.928;2023-05-24T07:09:39;15.82;;;5.70;;
66946;SDS011;53853;51.982;5.928;2023-05-24T07:12:09;12.80;;;5.30;;
66946;SDS011;53853;51.982;5.928;2023-05-24T07:14:39;13.73;;;4.30;;
66946;SDS011;53853;51.982;5.928;2023-05-24T07:17:11;17.70;;;5.90;;
66946;SDS011;53853;51.982;5.928;2023-05-24T07:19:41;9.52;;;4.93;;
66946;SDS011;53853;51.982;5.928;2023-05-24T07:22:11;20.45;;;6.30;;
66946;SDS011;53853;51.982;5.928;2023-05-24T07:24:41;14.98;;;5.03;;
66946;SDS011;53853;51.982;5.928;2023-05-24T07:27:11;12.77;;;4.35;;
66946;SDS011;53853;51.982;5.928;2023-05-24T07:29:41;17.15;;;6.10;;
66946;SDS011;53853;51.982;5.928;2023-05-24T07:32:13;14.27;;;4.95;;
66946;SDS011;53853;51.982;5.928;2023-05-24T07:34:44;13.02;;;4.03;;
66946;SDS011;53853;51.982;5.928;2023-05-24T07:37:15;10.05;;;3.95;;
66946;SDS011;53853;51.982;5.928;2023-05-24T07:39:45;12.40;;;4.43;;
66946;SDS011;53853;51.982;5.928;2023-05-24T07:42:14;12.18;;;4.10;;
66946;SDS011;53853;51.982;5.928;2023-05-24T07:44:46;11.63;;;4.82;;
66946;SDS011;53853;51.982;5.928;2023-05-24T07:47:18;11.38;;;4.40;;
66946;SDS011;53853;51.982;5.928;2023-05-24T07:49:48;12.82;;;4.90;;
66946;SDS011;53853;51.982;5.928;2023-05-24T07:52:18;13.57;;;4.53;;
66946;SDS011;53853;51.982;5.928;2023-05-24T07:54:49;11.32;;;4.10;;
66946;SDS011;53853;51.982;5.928;2023-05-24T07:57:19;13.77;;;4.28;;
66946;SDS011;53853;51.982;5.928;2023-05-24T07:59:49;12.75;;;4.47;;
66946;SDS011;53853;51.982;5.928;2023-05-24T08:02:22;14.00;;;4.90;;
66946;SDS011;53853;51.982;5.928;2023-05-24T08:04:52;12.07;;;4.00;;
66946;SDS011;53853;51.982;5.928;2023-05-24T08:07:22;13.80;;;4.70;;
66946;SDS011;53853;51.982;5.928;2023-05-24T08:09:53;13.50;;;4.00;;
66946;SDS011;53853;51.982;5.928;2023-05-24T08:12:23;13.32;;;4.20;;
66946;SDS011;53853;51.982;5.928;2023-05-24T08:14:55;16.02;;;4.10;;
66946;SDS011;53853;51.982;5.928;2023-05-24T08:17:27;11.27;;;3.95;;
66946;SDS011;53853;51.982;5.928;2023-05-24T08:19:57;11.93;;;4.28;;
66946;SDS011;53853;51.982;5.928;2023-05-24T08:22:28;10.25;;;3.65;;
66946;SDS011;53853;51.982;5.928;2023-05-24T08:24:58;12.90;;;4.07;;
66946;SDS011;53853;51.982;5.928;2023-05-24T08:27:28;15.15;;;4.35;;
66946;SDS011;53853;51.982;5.928;2023-05-24T08:29:58;8.85;;;3.10;;
66946;SDS011;53853;51.982;5.928;2023-05-24T08:32:31;14.20;;;4.82;;
66946;SDS011;53853;51.982;5.928;2023-05-24T08:35:03;14.45;;;3.53;;
66946;SDS011;53853;51.982;5.928;2023-05-24T08:37:33;12.35;;;3.90;;
66946;SDS011;53853;51.982;5.928;2023-05-24T08:40:03;12.90;;;3.88;;
66946;SDS011;53853;51.982;5.928;2023-05-24T08:42:34;14.27;;;4.43;;
66946;SDS011;53853;51.982;5.928;2023-05-24T08:45:07;11.70;;;4.20;;
66946;SDS011;53853;51.982;5.928;2023-05-24T08:47:42;12.13;;;3.92;;
66946;SDS011;53853;51.982;5.928;2023-05-24T08:50:12;10.70;;;3.80;;
66946;SDS011;53853;51.982;5.928;2023-05-24T08:52:42;9.50;;;3.63;;
66946;SDS011;53853;51.982;5.928;2023-05-24T08:55:13;11.52;;;4.18;;
66946;SDS011;53853;51.982;5.928;2023-05-24T08:57:44;7.53;;;3.03;;
66946;SDS011;53853;51.982;5.928;2023-05-24T09:00:15;13.07;;;4.30;;
66946;SDS011;53853;51.982;5.928;2023-05-24T09:02:49;11.73;;;3.90;;
66946;SDS011;53853;51.982;5.928;2023-05-24T09:05:19;11.90;;;3.50;;
66946;SDS011;53853;51.982;5.928;2023-05-24T09:07:49;12.20;;;3.40;;
66946;SDS011;53853;51.982;5.928;2023-05-24T09:10:20;8.38;;;3.40;;
66946;SDS011;53853;51.982;5.928;2023-05-24T09:12:53;8.38;;;3.50;;
66946;SDS011;53853;51.982;5.928;2023-05-24T09:15:25;9.48;;;3.38;;
66946;SDS011;53853;51.982;5.928;2023-05-24T09:17:58;8.48;;;3.17;;
66946;SDS011;53853;51.982;5.928;2023-05-24T09:20:28;8.27;;;2.92;;
66946;SDS011;53853;51.982;5.928;2023-05-24T09:22:58;8.93;;;3.45;;
66946;SDS011;53853;51.982;5.928;2023-05-24T09:25:32;12.05;;;3.85;;
66946;SDS011;53853;51.982;5.928;2023-05-24T09:28:04;5.85;;;2.80;;
66946;SDS011;53853;51.982;5.928;2023-05-24T09:30:35;16.23;;;3.77;;
66946;SDS011;53853;51.982;5.928;2023-05-24T09:33:07;9.23;;;3.60;;
66946;SDS011;53853;51.982;5.928;2023-05-24T09:35:40;8.53;;;3.10;;
66946;SDS011;53853;51.982;5.928;2023-05-24T09:38:15;9.30;;;3.50;;
66946;SDS011;53853;51.982;5.928;2023-05-24T09:40:45;12.70;;;3.65;;
66946;SDS011;53853;51.982;5.928;2023-05-24T09:43:24;9.55;;;3.85;;
66946;SDS011;53853;51.982;5.928;2023-05-24T09:45:54;12.55;;;3.50;;
66946;SDS011;53853;51.982;5.928;2023-05-24T09:48:28;9.38;;;3.83;;
66946;SDS011;53853;51.982;5.928;2023-05-24T09:51:01;13.45;;;4.28;;
66946;SDS011;53853;51.982;5.928;2023-05-24T09:53:35;9.57;;;3.33;;
66946;SDS011;53853;51.982;5.928;2023-05-24T09:56:06;8.25;;;3.63;;
66946;SDS011;53853;51.982;5.928;2023-05-24T09:58:37;6.90;;;3.38;;
66946;SDS011;53853;51.982;5.928;2023-05-24T10:01:08;6.65;;;2.95;;
66946;SDS011;53853;51.982;5.928;2023-05-24T10:03:53;7.57;;;2.80;;
66946;SDS011;53853;51.982;5.928;2023-05-24T10:06:25;7.28;;;3.20;;
66946;SDS011;53853;51.982;5.928;2023-05-24T10:08:57;8.43;;;3.20;;
66946;SDS011;53853;51.982;5.928;2023-05-24T10:11:29;10.15;;;3.40;;
66946;SDS011;53853;51.982;5.928;2023-05-24T10:14:02;6.90;;;3.28;;
66946;SDS011;53853;51.982;5.928;2023-05-24T10:16:33;13.90;;;3.80;;
66946;SDS011;53853;51.982;5.928;2023-05-24T10:19:06;8.27;;;3.15;;
66946;SDS011;53853;51.982;5.928;2023-05-24T10:21:36;10.93;;;4.28;;
66946;SDS011;53853;51.982;5.928;2023-05-24T10:24:09;9.40;;;3.73;;
66946;SDS011;53853;51.982;5.928;2023-05-24T10:26:42;8.52;;;3.03;;
66946;SDS011;53853;51.982;5.928;2023-05-24T10:29:16;9.15;;;4.20;;
66946;SDS011;53853;51.982;5.928;2023-05-24T10:31:55;8.13;;;3.42;;
66946;SDS011;53853;51.982;5.928;2023-05-24T10:34:28;9.65;;;3.58;;
66946;SDS011;53853;51.982;5.928;2023-05-24T10:36:58;10.18;;;3.03;;
66946;SDS011;53853;51.982;5.928;2023-05-24T10:39:28;7.60;;;3.67;;
66946;SDS011;53853;51.982;5.928;2023-05-24T10:42:02;5.97;;;2.80;;
66946;SDS011;53853;51.982;5.928;2023-05-24T10:44:34;11.18;;;4.07;;
66946;SDS011;53853;51.982;5.928;2023-05-24T10:47:08;8.07;;;3.75;;
66946;SDS011;53853;51.982;5.928;2023-05-24T10:49:46;9.95;;;3.83;;
66946;SDS011;53853;51.982;5.928;2023-05-24T10:52:19;8.45;;;3.47;;
66946;SDS011;53853;51.982;5.928;2023-05-24T10:55:01;12.65;;;4.03;;
66946;SDS011;53853;51.982;5.928;2023-05-24T10:57:32;8.60;;;3.55;;
66946;SDS011;53853;51.982;5.928;2023-05-24T11:03:09;9.85;;;4.05;;
66946;SDS011;53853;51.982;5.928;2023-05-24T11:05:51;9.75;;;3.58;;
66946;SDS011;53853;51.982;5.928;2023-05-24T11:08:23;8.13;;;2.90;;
66946;SDS011;53853;51.982;5.928;2023-05-24T11:11:00;7.60;;;3.20;;
66946;SDS011;53853;51.982;5.928;2023-05-24T11:13:41;11.93;;;3.38;;
66946;SDS011;53853;51.982;5.928;2023-05-24T11:19:10;8.10;;;3.17;;
66946;SDS011;53853;51.982;5.928;2023-05-24T11:21:45;6.40;;;2.90;;
66946;SDS011;53853;51.982;5.928;2023-05-24T11:24:16;7.50;;;2.92;;
66946;SDS011;53853;51.982;5.928;2023-05-24T11:26:48;9.32;;;3.42;;
66946;SDS011;53853;51.982;5.928;2023-05-24T11:29:18;5.97;;;2.80;;
66946;SDS011;53853;51.982;5.928;2023-05-24T11:31:50;7.65;;;2.90;;
66946;SDS011;53853;51.982;5.928;2023-05-24T11:34:22;7.85;;;3.08;;
66946;SDS011;53853;51.982;5.928;2023-05-24T11:36:55;10.15;;;3.83;;
66946;SDS011;53853;51.982;5.928;2023-05-24T11:39:29;10.38;;;3.30;;
66946;SDS011;53853;51.982;5.928;2023-05-24T11:42:00;9.90;;;3.30;;
66946;SDS011;53853;51.982;5.928;2023-05-24T11:44:33;8.00;;;3.05;;
66946;SDS011;53853;51.982;5.928;2023-05-24T11:47:06;7.32;;;2.70;;
66946;SDS011;53853;51.982;5.928;2023-05-24T11:49:36;9.35;;;3.28;;
66946;SDS011;53853;51.982;5.928;2023-05-24T11:52:09;8.93;;;3.00;;
66946;SDS011;53853;51.982;5.928;2023-05-24T11:54:39;7.93;;;3.45;;
66946;SDS011;53853;51.982;5.928;2023-05-24T11:57:10;8.50;;;3.38;;
66946;SDS011;53853;51.982;5.928;2023-05-24T11:59:40;5.72;;;2.95;;
66946;SDS011;53853;51.982;5.928;2023-05-24T12:02:10;9.57;;;3.17;;
66946;SDS011;53853;51.982;5.928;2023-05-24T12:04:40;7.25;;;3.30;;
66946;SDS011;53853;51.982;5.928;2023-05-24T12:07:13;9.07;;;3.45;;
66946;SDS011;53853;51.982;5.928;2023-05-24T12:09:44;10.07;;;3.40;;
66946;SDS011;53853;51.982;5.928;2023-05-24T12:12:35;9.93;;;3.83;;
66946;SDS011;53853;51.982;5.928;2023-05-24T12:15:09;9.60;;;4.05;;
66946;SDS011;53853;51.982;5.928;2023-05-24T12:17:40;11.52;;;3.75;;
66946;SDS011;53853;51.982;5.928;2023-05-24T12:20:14;12.05;;;3.92;;
66946;SDS011;53853;51.982;5.928;2023-05-24T12:22:51;7.95;;;3.15;;
66946;SDS011;53853;51.982;5.928;2023-05-24T12:25:22;10.82;;;3.58;;
66946;SDS011;53853;51.982;5.928;2023-05-24T12:27:53;9.10;;;3.42;;
66946;SDS011;53853;51.982;5.928;2023-05-24T12:30:23;11.52;;;4.15;;
66946;SDS011;53853;51.982;5.928;2023-05-24T12:32:55;8.88;;;3.17;;
66946;SDS011;53853;51.982;5.928;2023-05-24T12:35:25;11.43;;;3.97;;
66946;SDS011;53853;51.982;5.928;2023-05-24T12:37:59;7.35;;;3.22;;
66946;SDS011;53853;51.982;5.928;2023-05-24T12:40:31;8.50;;;3.22;;
66946;SDS011;53853;51.982;5.928;2023-05-24T12:43:02;10.40;;;3.35;;
66946;SDS011;53853;51.982;5.928;2023-05-24T12:45:32;6.15;;;2.70;;
66946;SDS011;53853;51.982;5.928;2023-05-24T12:48:02;9.85;;;3.67;;
66946;SDS011;53853;51.982;5.928;2023-05-24T12:50:32;7.97;;;3.88;;
66946;SDS011;53853;51.982;5.928;2023-05-24T12:53:05;7.82;;;3.25;;
66946;SDS011;53853;51.982;5.928;2023-05-24T12:55:34;10.38;;;3.58;;
66946;SDS011;53853;51.982;5.928;2023-05-24T12:58:04;8.93;;;3.28;;
66946;SDS011;53853;51.982;5.928;2023-05-24T13:00:34;7.43;;;3.67;;
66946;SDS011;53853;51.982;5.928;2023-05-24T13:03:04;7.95;;;3.38;;
66946;SDS011;53853;51.982;5.928;2023-05-24T13:05:34;6.10;;;3.38;;
66946;SDS011;53853;51.982;5.928;2023-05-24T13:08:06;6.30;;;2.65;;
66946;SDS011;53853;51.982;5.928;2023-05-24T13:10:36;10.55;;;3.42;;
66946;SDS011;53853;51.982;5.928;2023-05-24T13:13:06;9.07;;;3.58;;
66946;SDS011;53853;51.982;5.928;2023-05-24T13:15:36;8.43;;;3.25;;
66946;SDS011;53853;51.982;5.928;2023-05-24T13:18:09;9.50;;;3.00;;
66946;SDS011;53853;51.982;5.928;2023-05-24T13:20:39;8.65;;;3.75;;
66946;SDS011;53853;51.982;5.928;2023-05-24T13:23:11;11.35;;;3.30;;
66946;SDS011;53853;51.982;5.928;2023-05-24T13:25:41;12.05;;;3.30;;
66946;SDS011;53853;51.982;5.928;2023-05-24T13:28:11;9.60;;;3.70;;
66946;SDS011;53853;51.982;5.928;2023-05-24T13:30:41;6.15;;;2.92;;
66946;SDS011;53853;51.982;5.928;2023-05-24T13:33:11;7.72;;;3.13;;
66946;SDS011;53853;51.982;5.928;2023-05-24T13:35:41;11.75;;;3.90;;
66946;SDS011;53853;51.982;5.928;2023-05-24T13:38:13;8.07;;;3.38;;
66946;SDS011;53853;51.982;5.928;2023-05-24T13:40:47;7.45;;;3.78;;
66946;SDS011;53853;51.982;5.928;2023-05-24T13:43:18;9.80;;;3.33;;
66946;SDS011;53853;51.982;5.928;2023-05-24T13:45:49;6.72;;;2.90;;
66946;SDS011;53853;51.982;5.928;2023-05-24T13:48:19;10.25;;;4.43;;
66946;SDS011;53853;51.982;5.928;2023-05-24T13:50:49;7.68;;;2.97;;
66946;SDS011;53853;51.982;5.928;2023-05-24T13:53:22;5.03;;;2.75;;
66946;SDS011;53853;51.982;5.928;2023-05-24T13:55:52;7.32;;;3.42;;
66946;SDS011;53853;51.982;5.928;2023-05-24T13:58:22;8.13;;;3.55;;
66946;SDS011;53853;51.982;5.928;2023-05-24T14:00:52;9.60;;;3.67;;
66946;SDS011;53853;51.982;5.928;2023-05-24T14:03:22;7.45;;;3.08;;
66946;SDS011;53853;51.982;5.928;2023-05-24T14:05:51;8.40;;;2.83;;
66946;SDS011;53853;51.982;5.928;2023-05-24T14:08:24;7.97;;;2.95;;
66946;SDS011;53853;51.982;5.928;2023-05-24T14:10:54;6.90;;;3.10;;
66946;SDS011;53853;51.982;5.928;2023-05-24T14:13:24;6.78;;;3.90;;
66946;SDS011;53853;51.982;5.928;2023-05-24T14:15:54;9.30;;;3.05;;
66946;SDS011;53853;51.982;5.928;2023-05-24T14:18:24;6.18;;;2.72;;
66946;SDS011;53853;51.982;5.928;2023-05-24T14:20:54;6.82;;;3.55;;
66946;SDS011;53853;51.982;5.928;2023-05-24T14:23:26;8.65;;;2.83;;
66946;SDS011;53853;51.982;5.928;2023-05-24T14:25:57;7.75;;;2.67;;
66946;SDS011;53853;51.982;5.928;2023-05-24T14:28:27;4.55;;;2.58;;
66946;SDS011;53853;51.982;5.928;2023-05-24T14:30:57;5.15;;;2.25;;
66946;SDS011;53853;51.982;5.928;2023-05-24T14:33:27;4.32;;;2.53;;
66946;SDS011;53853;51.982;5.928;2023-05-24T14:35:57;5.22;;;2.25;;
66946;SDS011;53853;51.982;5.928;2023-05-24T14:38:29;8.15;;;3.25;;
66946;SDS011;53853;51.982;5.928;2023-05-24T14:41:00;7.88;;;2.83;;
66946;SDS011;53853;51.982;5.928;2023-05-24T14:43:31;6.65;;;3.30;;
66946;SDS011;53853;51.982;5.928;2023-05-24T14:46:01;9.82;;;3.88;;
66946;SDS011;53853;51.982;5.928;2023-05-24T14:48:31;7.65;;;3.17;;
66946;SDS011;53853;51.982;5.928;2023-05-24T14:51:02;9.93;;;3.38;;
66946;SDS011;53853;51.982;5.928;2023-05-24T14:53:34;8.20;;;3.38;;
66946;SDS011;53853;51.982;5.928;2023-05-24T14:56:04;7.72;;;3.30;;
66946;SDS011;53853;51.982;5.928;2023-05-24T14:58:34;9.18;;;3.38;;
66946;SDS011;53853;51.982;5.928;2023-05-24T15:01:04;11.50;;;3.63;;
66946;SDS011;53853;51.982;5.928;2023-05-24T15:03:34;7.10;;;3.55;;
66946;SDS011;53853;51.982;5.928;2023-05-24T15:06:04;6.28;;;3.33;;
66946;SDS011;53853;51.982;5.928;2023-05-24T15:08:37;5.90;;;2.70;;
66946;SDS011;53853;51.982;5.928;2023-05-24T15:11:07;8.57;;;3.78;;
66946;SDS011;53853;51.982;5.928;2023-05-24T15:13:37;7.90;;;2.92;;
66946;SDS011;53853;51.982;5.928;2023-05-24T15:16:06;6.47;;;2.90;;
66946;SDS011;53853;51.982;5.928;2023-05-24T15:18:36;9.32;;;3.10;;